Terminal Aerodrome Forecast
Issued by NWS

Home | Current Version | Previous Version | Text Only | Print | Product List | Glossary On
Versions: 1 2 3 4 5 6 7 8 9 10 11 12 13
921
FTUS43 KGRB 112338
TAFCWA
TAF
KCWA 112338Z 1200/1224 25006KT P6SM BKN080
     FM120600 28007KT P6SM BKN035
     FM120900 30008G15KT P6SM BKN025
     FM121500 32015G25KT P6SM -SN BKN035
      AMD LTD TO CLD VIS AND WND 1203/1211=

USA.gov is the U.S. government's official web portal to all federal, state and local government web resources and services.